createdAt,value
2022-10-11T00:01:31.751Z,76.77
2022-10-11T00:03:58.163Z,76.65
2022-10-11T00:06:24.479Z,76.90
2022-10-11T00:08:50.811Z,77.16
2022-10-11T00:11:17.195Z,77.54
2022-10-11T00:13:43.545Z,78.41
2022-10-11T00:16:11.626Z,77.56
2022-10-11T00:18:38.891Z,76.83
2022-10-11T00:21:08.429Z,76.68
2022-10-11T00:23:35.193Z,78.16
2022-10-11T00:26:04.655Z,77.43
2022-10-11T00:28:31.835Z,78.16
2022-10-11T00:30:58.252Z,77.86
2022-10-11T00:33:24.770Z,78.21
2022-10-11T00:35:51.205Z,77.51
2022-10-11T00:38:17.982Z,77.72
2022-10-11T00:40:45.735Z,77.49
2022-10-11T00:43:18.084Z,76.68
2022-10-11T00:45:56.801Z,76.30
2022-10-11T00:48:27.649Z,76.85
2022-10-11T00:50:58.360Z,76.39
2022-10-11T00:53:26.209Z,76.28
2022-10-11T00:56:04.655Z,77.57
2022-10-11T00:58:33.580Z,76.83
2022-10-11T01:00:59.944Z,77.08
2022-10-11T01:03:28.362Z,76.81
2022-10-11T01:05:55.587Z,77.07
2022-10-11T01:08:23.120Z,77.58
2022-10-11T01:10:49.551Z,76.29
2022-10-11T01:13:27.818Z,77.14
2022-10-11T01:16:23.254Z,77.48
2022-10-11T01:18:57.747Z,77.87
2022-10-11T01:21:52.821Z,78.01
2022-10-11T01:24:28.275Z,78.26
2022-10-11T01:27:19.493Z,78.12
2022-10-11T01:30:18.155Z,78.08
2022-10-11T01:33:05.225Z,79.23
2022-10-11T01:36:03.639Z,78.67
2022-10-11T01:38:34.817Z,79.07
2022-10-11T01:41:10.571Z,78.76
2022-10-11T01:43:39.257Z,79.59
2022-10-11T01:46:08.264Z,79.71
2022-10-11T01:48:53.838Z,80.25
2022-10-11T01:51:24.971Z,79.56
2022-10-11T01:54:18.778Z,79.80
2022-10-11T01:57:26.174Z,80.07
2022-10-11T02:00:01.747Z,79.09
2022-10-11T02:03:21.556Z,80.12
2022-10-11T02:05:57.545Z,79.95
2022-10-11T02:08:49.810Z,80.17
2022-10-11T02:11:24.468Z,80.40
2022-10-11T02:13:57.476Z,80.24
2022-10-11T02:16:31.303Z,79.64
2022-10-11T02:18:59.415Z,79.02
2022-10-11T02:21:27.359Z,80.15
2022-10-11T02:23:59.933Z,80.31
2022-10-11T02:26:30.603Z,80.62
2022-10-11T02:29:01.270Z,80.45
2022-10-11T02:31:30.429Z,80.92
2022-10-11T02:34:06.105Z,80.07
2022-10-11T02:37:16.581Z,81.89
2022-10-11T02:39:47.285Z,81.58
2022-10-11T02:42:38.747Z,82.28
2022-10-11T02:45:13.823Z,82.71
2022-10-11T02:47:42.387Z,81.78
2022-10-11T02:50:11.461Z,82.01
2022-10-11T02:52:37.876Z,80.81
2022-10-11T02:55:04.649Z,80.46
2022-10-11T02:57:30.967Z,81.75
2022-10-11T02:59:57.294Z,81.27
2022-10-11T03:02:23.658Z,79.74
2022-10-11T03:04:50.078Z,78.69
2022-10-11T03:07:16.504Z,79.23
2022-10-11T03:09:43.008Z,78.11
2022-10-11T03:12:09.362Z,79.09
2022-10-11T03:14:35.697Z,78.06
2022-10-11T03:17:23.808Z,77.72
2022-10-11T03:19:48.396Z,78.51
2022-10-11T03:22:14.991Z,78.19
2022-10-11T03:24:41.379Z,78.84
2022-10-11T03:27:07.728Z,78.05
2022-10-11T03:29:34.074Z,78.34
2022-10-11T03:32:00.494Z,79.53
2022-10-11T03:34:26.850Z,79.74
2022-10-11T03:36:53.180Z,78.83
2022-10-11T03:39:19.677Z,79.33
2022-10-11T03:41:46.096Z,79.08
2022-10-11T03:44:12.552Z,79.05
2022-10-11T03:46:38.971Z,80.03
2022-10-11T03:49:05.294Z,79.77
2022-10-11T03:51:31.802Z,80.50
2022-10-11T03:53:58.215Z,81.56
2022-10-11T03:56:24.697Z,80.20
2022-10-11T03:58:51.013Z,80.70
2022-10-11T04:01:17.630Z,80.68
2022-10-11T04:03:44.047Z,80.51
2022-10-11T04:06:10.373Z,79.82
2022-10-11T04:08:36.708Z,80.21
2022-10-11T04:11:03.348Z,81.07
2022-10-11T04:13:29.655Z,81.58
2022-10-11T04:15:56.016Z,80.66
2022-10-11T04:18:22.371Z,80.27
2022-10-11T04:20:48.781Z,79.69
2022-10-11T04:23:15.105Z,80.35
2022-10-11T04:25:42.122Z,80.01
2022-10-11T04:28:09.238Z,81.31
2022-10-11T04:30:35.622Z,79.78
2022-10-11T04:33:02.090Z,81.40
2022-10-11T04:35:28.577Z,80.10
2022-10-11T04:37:54.878Z,80.98
2022-10-11T04:40:21.205Z,80.92
2022-10-11T04:42:47.530Z,81.71
2022-10-11T04:45:14.002Z,82.56
2022-10-11T04:47:41.050Z,80.88
2022-10-11T04:50:07.974Z,81.92
2022-10-11T04:52:34.454Z,81.26
2022-10-11T04:55:00.799Z,82.47
2022-10-11T04:57:27.121Z,81.09
2022-10-11T04:59:53.425Z,80.81
2022-10-11T05:02:19.831Z,81.34
2022-10-11T05:04:46.349Z,81.86
2022-10-11T05:07:12.702Z,81.25
2022-10-11T05:09:39.038Z,80.50
2022-10-11T05:12:05.877Z,80.65
2022-10-11T05:14:32.186Z,82.27
2022-10-11T05:16:58.504Z,81.01
2022-10-11T05:19:24.862Z,81.96
2022-10-11T05:21:51.178Z,80.99
2022-10-11T05:24:17.499Z,79.51
2022-10-11T05:26:43.785Z,80.66
2022-10-11T05:29:10.128Z,79.98
2022-10-11T05:31:36.482Z,78.63
2022-10-11T05:34:02.837Z,79.38
2022-10-11T05:36:29.200Z,79.07
2022-10-11T05:38:55.533Z,77.95
2022-10-11T05:41:21.916Z,78.07
2022-10-11T05:43:48.224Z,78.21
2022-10-11T05:46:14.949Z,78.12
2022-10-11T05:48:41.282Z,79.12
2022-10-11T05:51:10.387Z,77.66
2022-10-11T05:53:38.333Z,77.72
2022-10-11T05:56:05.776Z,78.56
2022-10-11T05:58:32.395Z,77.66
2022-10-11T06:00:58.853Z,77.84
2022-10-11T06:03:25.258Z,77.71
2022-10-11T06:05:56.486Z,77.62
2022-10-11T06:08:23.386Z,78.72
2022-10-11T06:10:49.694Z,80.08
2022-10-11T06:13:16.084Z,80.77
2022-10-11T06:15:42.423Z,80.22
2022-10-11T06:18:08.868Z,79.14
2022-10-11T06:20:35.221Z,80.63
2022-10-11T06:23:02.871Z,79.45
2022-10-11T06:25:29.251Z,80.93
2022-10-11T06:27:55.708Z,80.11
2022-10-11T06:30:22.339Z,80.42
2022-10-11T06:32:48.641Z,81.26
2022-10-11T06:35:15.000Z,81.06
2022-10-11T06:37:41.441Z,81.10
2022-10-11T06:40:08.396Z,81.69
2022-10-11T06:42:34.839Z,82.07
2022-10-11T06:45:01.160Z,81.42
2022-10-11T06:47:27.553Z,81.06
2022-10-11T06:49:53.918Z,82.73
2022-10-11T06:52:20.254Z,83.43
2022-10-11T06:54:46.651Z,83.36
2022-10-11T06:57:13.034Z,81.87
2022-10-11T06:59:39.350Z,82.91
2022-10-11T07:02:06.734Z,81.47
2022-10-11T07:04:33.849Z,81.88
2022-10-11T07:07:00.400Z,83.28
2022-10-11T07:09:26.739Z,82.19
2022-10-11T07:11:53.181Z,82.00
2022-10-11T07:14:19.507Z,83.54
2022-10-11T07:16:45.977Z,81.75
2022-10-11T07:19:12.354Z,82.88
2022-10-11T07:21:38.756Z,82.33
2022-10-11T07:24:05.602Z,83.81
2022-10-11T07:26:38.122Z,83.26
2022-10-11T07:29:09.023Z,82.84
2022-10-11T07:31:38.196Z,83.72
2022-10-11T07:34:04.586Z,84.02
2022-10-11T07:36:30.946Z,83.96
2022-10-11T07:38:57.349Z,83.77
2022-10-11T07:41:23.869Z,83.97
2022-10-11T07:43:50.937Z,83.07
2022-10-11T07:46:18.624Z,82.22
2022-10-11T07:48:45.011Z,82.04
2022-10-11T07:51:17.557Z,81.12
2022-10-11T07:53:46.422Z,81.05
2022-10-11T07:56:15.137Z,81.71
2022-10-11T07:58:42.609Z,80.89
2022-10-11T08:01:10.711Z,81.39
2022-10-11T08:03:38.160Z,80.21
2022-10-11T08:06:08.452Z,80.47
2022-10-11T08:08:36.485Z,80.73
2022-10-11T08:11:02.996Z,80.26
2022-10-11T08:13:29.547Z,80.86
2022-10-11T08:15:56.263Z,80.63
2022-10-11T08:18:22.795Z,81.93
2022-10-11T08:20:49.235Z,81.14
2022-10-11T08:23:17.047Z,80.24
2022-10-11T08:25:47.286Z,80.53
2022-10-11T08:28:17.945Z,80.61
2022-10-11T08:30:53.050Z,81.00
2022-10-11T08:33:21.403Z,80.86
2022-10-11T08:35:48.695Z,81.54
2022-10-11T08:38:16.578Z,81.23
2022-10-11T08:40:55.235Z,81.32
2022-10-11T08:43:41.878Z,80.70
2022-10-11T08:46:10.712Z,80.89
2022-10-11T08:48:47.200Z,80.43
2022-10-11T08:51:23.198Z,80.22
2022-10-11T08:54:07.164Z,81.25
2022-10-11T08:56:38.768Z,80.27
2022-10-11T08:59:10.831Z,80.21
2022-10-11T09:01:44.474Z,80.93
2022-10-11T09:04:14.162Z,80.18
2022-10-11T09:06:53.454Z,80.35
2022-10-11T09:09:20.145Z,79.99
2022-10-11T09:12:03.732Z,80.19
2022-10-11T09:14:48.506Z,79.55
2022-10-11T09:17:29.818Z,80.40
2022-10-11T09:20:14.592Z,80.49
2022-10-11T09:23:03.171Z,80.15
2022-10-11T09:25:46.824Z,79.43
2022-10-11T09:28:31.770Z,79.55
2022-10-11T09:30:59.303Z,78.29
2022-10-11T09:33:43.892Z,77.96
2022-10-11T09:36:37.204Z,77.51
2022-10-11T09:39:24.594Z,77.65
2022-10-11T09:41:55.456Z,77.18
2022-10-11T09:44:27.994Z,77.25
2022-10-11T09:46:56.034Z,77.19
2022-10-11T09:49:28.364Z,78.19
2022-10-11T09:51:57.362Z,76.21
2022-10-11T09:54:38.726Z,76.32
2022-10-11T09:57:05.222Z,75.37
2022-10-11T09:59:33.914Z,75.30
2022-10-11T10:02:12.623Z,74.48
2022-10-11T10:05:04.886Z,74.07
2022-10-11T10:07:32.389Z,74.02
2022-10-11T10:09:59.075Z,73.39
2022-10-11T10:12:30.312Z,73.86
2022-10-11T10:15:13.678Z,72.84
2022-10-11T10:17:48.844Z,71.56
2022-10-11T10:20:34.522Z,72.08
2022-10-11T10:23:08.403Z,71.26
2022-10-11T10:25:43.118Z,70.95
2022-10-11T10:28:24.845Z,70.29
2022-10-11T10:30:55.931Z,71.23
2022-10-11T10:33:25.201Z,69.80
2022-10-11T10:36:19.057Z,69.32
2022-10-11T10:38:52.379Z,69.76
2022-10-11T10:41:19.453Z,69.21
2022-10-11T10:43:53.509Z,66.68
2022-10-11T10:46:38.666Z,65.22
2022-10-11T10:52:32.048Z,65.63
2022-10-11T10:55:19.803Z,64.69
2022-10-11T10:58:07.112Z,65.69
2022-10-11T11:00:48.301Z,63.93
2022-10-11T11:03:17.751Z,62.07
2022-10-11T11:06:25.496Z,62.91
2022-10-11T11:09:03.263Z,60.48
2022-10-11T11:11:42.787Z,59.71
2022-10-11T11:14:44.452Z,59.73
2022-10-11T11:17:45.165Z,59.79
2022-10-11T11:20:20.849Z,59.32
2022-10-11T11:23:17.998Z,60.57
2022-10-11T11:26:26.002Z,60.49
2022-10-11T11:29:00.125Z,60.90
2022-10-11T11:31:35.636Z,61.32
2022-10-11T11:34:18.871Z,60.35
2022-10-11T11:36:54.154Z,60.60
2022-10-11T11:39:34.770Z,60.58
2022-10-11T11:42:21.226Z,58.48
2022-10-11T11:44:49.853Z,59.69
2022-10-11T11:47:42.392Z,59.86
2022-10-11T11:50:25.178Z,60.31
2022-10-11T11:53:11.590Z,60.33
2022-10-11T11:55:49.169Z,59.78
2022-10-11T11:58:37.188Z,58.61
2022-10-11T12:01:31.534Z,58.96
2022-10-11T12:04:12.349Z,58.10
2022-10-11T12:06:52.509Z,58.82
2022-10-11T12:09:25.714Z,59.51
2022-10-11T12:12:06.916Z,58.81
2022-10-11T12:14:33.333Z,58.34
2022-10-11T12:17:16.277Z,58.49
2022-10-11T12:20:01.015Z,57.64
2022-10-11T12:22:27.584Z,58.59
2022-10-11T12:24:56.737Z,58.91
2022-10-11T12:27:40.230Z,57.35
2022-10-11T12:30:48.009Z,58.09
2022-10-11T12:33:23.657Z,57.29
2022-10-11T12:35:52.886Z,58.72
2022-10-11T12:38:33.071Z,58.37
2022-10-11T12:41:00.595Z,57.61
2022-10-11T12:43:36.040Z,57.37
2022-10-11T12:46:41.329Z,56.99
2022-10-11T12:49:45.171Z,56.89
2022-10-11T12:52:17.715Z,57.60
2022-10-11T12:55:09.234Z,57.13
2022-10-11T12:57:40.501Z,56.85
2022-10-11T13:00:23.761Z,56.90
2022-10-11T13:02:50.258Z,58.20
2022-10-11T13:05:45.029Z,57.40
2022-10-11T13:08:22.566Z,57.28
2022-10-11T13:10:49.015Z,57.43
2022-10-11T13:13:39.447Z,56.88
2022-10-11T13:16:16.807Z,57.34
2022-10-11T13:18:45.811Z,58.36
2022-10-11T13:21:26.862Z,56.27
2022-10-11T13:24:00.410Z,57.14
2022-10-11T13:26:29.055Z,56.05
2022-10-11T13:28:55.658Z,56.19
2022-10-11T13:31:23.945Z,56.84
2022-10-11T13:33:54.814Z,57.16
2022-10-11T13:36:24.255Z,55.88
2022-10-11T13:39:01.476Z,57.78
2022-10-11T13:41:29.877Z,57.24
2022-10-11T13:43:58.608Z,57.60
2022-10-11T13:46:27.868Z,57.39
2022-10-11T13:49:06.579Z,56.62
2022-10-11T13:51:37.239Z,56.58
2022-10-11T13:54:13.056Z,57.04
2022-10-11T13:56:50.820Z,57.70
2022-10-11T13:59:28.121Z,58.28
2022-10-11T14:02:00.146Z,57.72
2022-10-11T14:04:29.778Z,57.70
2022-10-11T14:07:03.266Z,58.91
2022-10-11T14:09:36.732Z,57.19
2022-10-11T14:12:38.049Z,58.11
2022-10-11T14:15:07.055Z,60.01
2022-10-11T14:17:41.210Z,58.63
2022-10-11T14:20:19.619Z,58.73
2022-10-11T14:22:46.247Z,57.30
2022-10-11T14:25:13.260Z,56.96
2022-10-11T14:27:40.010Z,57.43
2022-10-11T14:30:27.437Z,58.03
2022-10-11T14:32:56.525Z,57.80
2022-10-11T14:35:26.162Z,57.87
2022-10-11T14:37:53.152Z,58.75
2022-10-11T14:40:30.732Z,58.66
2022-10-11T14:42:57.618Z,59.81
2022-10-11T14:45:24.107Z,58.22
2022-10-11T14:47:50.966Z,59.88
2022-10-11T14:50:42.031Z,60.55
2022-10-11T14:53:10.762Z,58.96
2022-10-11T14:55:39.528Z,59.56
2022-10-11T14:58:08.574Z,60.93
2022-10-11T15:00:36.655Z,61.82
2022-10-11T15:03:04.903Z,61.94
2022-10-11T15:05:34.238Z,61.55
2022-10-11T15:08:01.754Z,61.23
2022-10-11T15:10:38.133Z,61.79
2022-10-11T15:13:06.927Z,62.34
2022-10-11T15:15:36.754Z,64.72
2022-10-11T15:18:06.030Z,62.41
2022-10-11T15:20:37.690Z,64.05
2022-10-11T15:23:05.670Z,64.31
2022-10-11T15:25:32.332Z,64.66
2022-10-11T15:27:58.935Z,67.07
2022-10-11T15:30:29.087Z,68.42
2022-10-11T15:32:55.490Z,68.68
2022-10-11T15:35:23.578Z,68.70
2022-10-11T15:37:58.376Z,67.86
2022-10-11T15:40:33.930Z,68.96
2022-10-11T15:43:00.349Z,68.49
2022-10-11T15:45:26.970Z,69.53
2022-10-11T15:47:53.534Z,70.22
2022-10-11T15:50:35.147Z,69.15
2022-10-11T15:53:05.058Z,69.25
2022-10-11T15:55:33.253Z,68.90
2022-10-11T15:57:59.882Z,69.28
2022-10-11T16:00:27.017Z,68.59
2022-10-11T16:02:53.927Z,69.20
2022-10-11T16:05:21.955Z,68.33
2022-10-11T16:07:48.476Z,68.54
2022-10-11T16:10:14.991Z,68.25
2022-10-11T16:12:41.430Z,67.74
2022-10-11T16:15:08.376Z,68.70
2022-10-11T16:17:34.791Z,68.82
2022-10-11T16:20:01.220Z,68.24
2022-10-11T16:22:27.734Z,68.40
2022-10-11T16:24:54.082Z,68.54
2022-10-11T16:27:20.526Z,68.04
2022-10-11T16:29:46.925Z,67.81
2022-10-11T16:32:13.483Z,68.27
2022-10-11T16:34:39.875Z,68.14
2022-10-11T16:37:06.189Z,68.17
2022-10-11T16:39:33.702Z,68.14
2022-10-11T16:42:00.056Z,68.46
2022-10-11T16:44:27.776Z,68.91
2022-10-11T16:46:55.139Z,69.54
2022-10-11T16:49:25.051Z,70.26
2022-10-11T16:51:53.342Z,70.28
2022-10-11T16:54:21.053Z,70.06
2022-10-11T16:56:49.426Z,72.23
2022-10-11T16:59:16.152Z,72.01
2022-10-11T17:01:43.306Z,72.24
2022-10-11T17:04:09.663Z,72.12
2022-10-11T17:06:36.122Z,71.65
2022-10-11T17:09:02.586Z,72.10
2022-10-11T17:11:28.944Z,71.88
2022-10-11T17:13:55.324Z,73.22
2022-10-11T17:16:22.524Z,72.15
2022-10-11T17:18:49.365Z,72.01
2022-10-11T17:21:17.765Z,72.73
2022-10-11T17:23:44.314Z,71.60
2022-10-11T17:26:15.999Z,70.87
2022-10-11T17:28:42.588Z,71.36
2022-10-11T17:31:09.658Z,71.47
2022-10-11T17:33:36.553Z,70.67
2022-10-11T17:36:27.779Z,71.27
2022-10-11T17:38:54.164Z,70.84
2022-10-11T17:41:20.907Z,71.12
2022-10-11T17:43:47.982Z,70.49
2022-10-11T17:46:16.512Z,71.47
2022-10-11T17:48:44.468Z,71.22
2022-10-11T17:51:14.326Z,71.81
2022-10-11T17:53:40.960Z,71.78
2022-10-11T17:56:09.727Z,73.61
2022-10-11T17:58:36.799Z,73.65
2022-10-11T18:01:10.834Z,73.92
2022-10-11T18:03:37.808Z,74.19
2022-10-11T18:06:06.103Z,74.70
2022-10-11T18:08:40.440Z,73.99
2022-10-11T18:11:13.200Z,74.38
2022-10-11T18:13:42.785Z,73.94
2022-10-11T18:16:09.921Z,73.63
2022-10-11T18:18:36.690Z,74.63
2022-10-11T18:21:03.706Z,74.26
2022-10-11T18:23:30.703Z,75.10
2022-10-11T18:25:57.232Z,74.65
2022-10-11T18:28:23.688Z,75.68
2022-10-11T18:30:50.150Z,75.13
2022-10-11T18:33:16.807Z,75.00
2022-10-11T18:35:43.175Z,74.67
2022-10-11T18:38:09.633Z,75.11
2022-10-11T18:40:44.702Z,75.75
2022-10-11T18:43:13.303Z,75.96
2022-10-11T18:45:39.652Z,76.78
2022-10-11T18:48:08.572Z,77.67
2022-10-11T18:50:35.561Z,78.37
2022-10-11T18:53:02.132Z,78.70
2022-10-11T18:55:28.726Z,78.40
2022-10-11T18:57:55.106Z,79.93
2022-10-11T19:00:40.061Z,79.89
2022-10-11T19:03:07.365Z,81.19
2022-10-11T19:05:33.737Z,80.55
2022-10-11T19:08:00.160Z,81.68
2022-10-11T19:10:26.524Z,82.40
2022-10-11T19:12:52.937Z,83.35
2022-10-11T19:15:19.340Z,82.39
2022-10-11T19:17:45.724Z,82.93
2022-10-11T19:20:12.756Z,82.74
2022-10-11T19:22:39.098Z,83.11
2022-10-11T19:25:06.180Z,84.18
2022-10-11T19:27:32.675Z,82.59
2022-10-11T19:30:00.284Z,83.45
2022-10-11T19:32:26.677Z,83.72
2022-10-11T19:34:53.116Z,83.76
2022-10-11T19:37:19.544Z,83.75
2022-10-11T19:39:45.922Z,82.91
2022-10-11T19:42:12.299Z,81.96
2022-10-11T19:44:39.778Z,82.49
2022-10-11T19:47:06.581Z,81.70
2022-10-11T19:49:32.987Z,82.86
2022-10-11T19:52:00.977Z,82.54
2022-10-11T19:54:27.370Z,82.52
2022-10-11T19:56:53.782Z,82.35
2022-10-11T19:59:20.217Z,83.40
2022-10-11T20:01:52.067Z,82.36
2022-10-11T20:04:47.473Z,84.22
2022-10-11T20:07:06.701Z,81.96
2022-10-11T20:09:33.112Z,81.99
2022-10-11T20:11:59.551Z,82.00
2022-10-11T20:14:25.931Z,83.49
2022-10-11T20:16:52.713Z,81.42
2022-10-11T20:19:19.355Z,83.00
2022-10-11T20:21:45.862Z,81.52
2022-10-11T20:24:12.411Z,82.46
2022-10-11T20:26:39.291Z,80.18
2022-10-11T20:29:06.315Z,80.26
2022-10-11T20:31:34.528Z,79.72
2022-10-11T20:34:03.975Z,78.94
2022-10-11T20:36:30.937Z,78.79
2022-10-11T20:38:58.621Z,78.65
2022-10-11T20:41:27.705Z,78.43
2022-10-11T20:43:56.306Z,77.62
2022-10-11T20:46:25.003Z,77.46
2022-10-11T20:48:58.890Z,77.46
2022-10-11T20:51:28.733Z,77.38
2022-10-11T20:53:55.395Z,77.08
2022-10-11T20:56:22.412Z,77.58
2022-10-11T20:58:53.689Z,76.68
2022-10-11T21:01:23.166Z,77.75
2022-10-11T21:03:50.296Z,78.17
2022-10-11T21:06:16.823Z,78.38
2022-10-11T21:08:43.974Z,79.76
2022-10-11T21:11:10.934Z,80.23
2022-10-11T21:13:37.757Z,80.09
2022-10-11T21:16:06.787Z,78.87
2022-10-11T21:18:33.278Z,78.70
2022-10-11T21:21:06.285Z,79.29
2022-10-11T21:23:32.733Z,78.46
2022-10-11T21:26:04.040Z,80.28
2022-10-11T21:28:30.853Z,80.11
2022-10-11T21:31:03.670Z,79.95
2022-10-11T21:33:30.323Z,80.18
2022-10-11T21:35:57.392Z,80.86
2022-10-11T21:38:23.762Z,80.41
2022-10-11T21:40:50.143Z,79.84
2022-10-11T21:43:16.487Z,78.88
2022-10-11T21:45:43.128Z,78.54
2022-10-11T21:48:09.492Z,77.23
2022-10-11T21:50:35.810Z,77.34
2022-10-11T21:53:02.235Z,75.42
2022-10-11T21:55:28.689Z,75.50
2022-10-11T21:57:55.641Z,75.07
2022-10-11T22:00:22.005Z,74.31
2022-10-11T22:02:48.643Z,74.22
2022-10-11T22:05:15.086Z,73.61
2022-10-11T22:07:41.439Z,72.77
2022-10-11T22:10:07.895Z,73.45
2022-10-11T22:12:34.606Z,73.52
2022-10-11T22:15:01.331Z,73.02
2022-10-11T22:17:27.680Z,73.89
2022-10-11T22:19:54.016Z,73.58
2022-10-11T22:22:20.333Z,72.49
2022-10-11T22:24:46.687Z,73.34
2022-10-11T22:27:13.091Z,74.87
2022-10-11T22:29:39.421Z,74.02
2022-10-11T22:32:05.800Z,74.41
2022-10-11T22:34:33.066Z,75.31
2022-10-11T22:36:59.434Z,75.84
2022-10-11T22:39:25.793Z,74.39
2022-10-11T22:41:53.617Z,74.58
2022-10-11T22:44:20.028Z,74.36
2022-10-11T22:46:46.395Z,75.02
2022-10-11T22:49:12.951Z,75.46
2022-10-11T22:51:39.295Z,76.00
2022-10-11T22:54:05.705Z,75.16
2022-10-11T22:56:32.090Z,75.00
2022-10-11T22:58:59.435Z,75.36
2022-10-11T23:01:25.793Z,75.43
2022-10-11T23:03:52.220Z,75.75
2022-10-11T23:06:18.868Z,75.93
2022-10-11T23:08:45.289Z,75.91
2022-10-11T23:11:12.478Z,76.03
2022-10-11T23:13:38.981Z,76.11
2022-10-11T23:16:07.553Z,75.76
2022-10-11T23:18:34.123Z,76.18
2022-10-11T23:21:01.242Z,75.23
2022-10-11T23:23:27.578Z,75.29
2022-10-11T23:26:06.439Z,76.22
2022-10-11T23:28:33.291Z,77.15
2022-10-11T23:30:59.863Z,77.43
2022-10-11T23:33:28.339Z,76.43
2022-10-11T23:35:54.708Z,76.63
2022-10-11T23:38:21.157Z,76.81
2022-10-11T23:40:47.489Z,78.63
2022-10-11T23:43:14.078Z,77.36
2022-10-11T23:45:40.397Z,77.42
2022-10-11T23:48:06.724Z,77.07
2022-10-11T23:50:33.068Z,77.34
2022-10-11T23:52:59.386Z,76.67
2022-10-11T23:55:25.721Z,76.86
2022-10-11T23:57:52.088Z,76.32
